Pine Lake, Georgia
Current Conditions -  °F | °C
As of 5:53 PM on Tuesday 21 Oct 2014 (Local Time) from KPDK Reporting Station
Clear Clear  
Wind Chill: 71°   Ceiling: Unl
Heat Index: 71°   Visibility: 10mi
Dew Point: 48°   Wind: 12mph
Humidity: 44%   Direction: 330°NNW
Pressure: 29.96"   Gusts: NA
Location:  33.79°N, 84.21°W
Report Text: KPDK 212153Z 33010KT 10SM CLR 22/09 A2996 RMK AO2 SLP140 T02170089
Loading
Personal Weather Stations






























Interactive Weather Map New forecast layout! Learn more

10-Day Weather Forecast

Advertisements
Track Severe Weather on mobile